sensor_id;sensor_type;location;lat;lon;timestamp;P1;durP1;ratioP1;P2;durP2;ratioP2
70806;SDS011;58882;52.170;5.386;2023-09-19T00:00:38;5.68;;;1.50;;
70806;SDS011;58882;52.170;5.386;2023-09-19T00:03:06;6.90;;;1.80;;
70806;SDS011;58882;52.170;5.386;2023-09-19T00:05:34;5.93;;;1.20;;
70806;SDS011;58882;52.170;5.386;2023-09-19T00:10:32;7.03;;;1.38;;
70806;SDS011;58882;52.170;5.386;2023-09-19T00:13:02;5.90;;;1.55;;
70806;SDS011;58882;52.170;5.386;2023-09-19T00:15:37;7.88;;;1.50;;
70806;SDS011;58882;52.170;5.386;2023-09-19T00:18:07;9.05;;;1.35;;
70806;SDS011;58882;52.170;5.386;2023-09-19T00:20:35;6.38;;;1.30;;
70806;SDS011;58882;52.170;5.386;2023-09-19T00:23:03;7.18;;;1.33;;
70806;SDS011;58882;52.170;5.386;2023-09-19T00:25:35;6.85;;;1.45;;
70806;SDS011;58882;52.170;5.386;2023-09-19T00:28:05;4.68;;;1.40;;
70806;SDS011;58882;52.170;5.386;2023-09-19T00:30:34;8.63;;;1.52;;
70806;SDS011;58882;52.170;5.386;2023-09-19T00:33:02;6.93;;;1.50;;
70806;SDS011;58882;52.170;5.386;2023-09-19T00:35:33;5.55;;;1.40;;
70806;SDS011;58882;52.170;5.386;2023-09-19T00:38:00;7.53;;;1.50;;
70806;SDS011;58882;52.170;5.386;2023-09-19T00:40:27;3.45;;;1.30;;
70806;SDS011;58882;52.170;5.386;2023-09-19T00:42:56;6.07;;;1.20;;
70806;SDS011;58882;52.170;5.386;2023-09-19T00:45:26;8.02;;;1.60;;
70806;SDS011;58882;52.170;5.386;2023-09-19T00:47:54;6.20;;;1.40;;
70806;SDS011;58882;52.170;5.386;2023-09-19T00:52:53;4.18;;;1.13;;
70806;SDS011;58882;52.170;5.386;2023-09-19T00:55:23;6.38;;;1.25;;
70806;SDS011;58882;52.170;5.386;2023-09-19T00:57:51;8.10;;;1.40;;
70806;SDS011;58882;52.170;5.386;2023-09-19T01:00:19;10.10;;;1.65;;
70806;SDS011;58882;52.170;5.386;2023-09-19T01:02:47;5.50;;;1.35;;
70806;SDS011;58882;52.170;5.386;2023-09-19T01:05:14;7.32;;;1.55;;
70806;SDS011;58882;52.170;5.386;2023-09-19T01:07:42;3.70;;;1.55;;
70806;SDS011;58882;52.170;5.386;2023-09-19T01:10:15;5.75;;;1.42;;
70806;SDS011;58882;52.170;5.386;2023-09-19T01:20:57;6.47;;;1.50;;
70806;SDS011;58882;52.170;5.386;2023-09-19T01:26:53;6.13;;;1.70;;
70806;SDS011;58882;52.170;5.386;2023-09-19T01:32:01;6.50;;;1.63;;
70806;SDS011;58882;52.170;5.386;2023-09-19T01:37:16;5.32;;;1.55;;
70806;SDS011;58882;52.170;5.386;2023-09-19T01:39:50;4.03;;;1.23;;
70806;SDS011;58882;52.170;5.386;2023-09-19T01:44:59;6.43;;;1.27;;
70806;SDS011;58882;52.170;5.386;2023-09-19T01:47:39;7.78;;;1.65;;
70806;SDS011;58882;52.170;5.386;2023-09-19T01:50:34;3.90;;;1.20;;
70806;SDS011;58882;52.170;5.386;2023-09-19T01:53:12;5.80;;;1.85;;
70806;SDS011;58882;52.170;5.386;2023-09-19T01:55:48;7.25;;;1.40;;
70806;SDS011;58882;52.170;5.386;2023-09-19T01:58:17;6.72;;;1.33;;
70806;SDS011;58882;52.170;5.386;2023-09-19T02:00:52;6.90;;;1.40;;
70806;SDS011;58882;52.170;5.386;2023-09-19T02:03:21;5.47;;;1.63;;
70806;SDS011;58882;52.170;5.386;2023-09-19T02:08:18;6.35;;;1.33;;
70806;SDS011;58882;52.170;5.386;2023-09-19T02:10:46;8.80;;;1.50;;
70806;SDS011;58882;52.170;5.386;2023-09-19T02:13:16;4.70;;;1.40;;
70806;SDS011;58882;52.170;5.386;2023-09-19T02:15:47;7.43;;;1.80;;
70806;SDS011;58882;52.170;5.386;2023-09-19T02:18:14;5.70;;;1.52;;
70806;SDS011;58882;52.170;5.386;2023-09-19T02:20:42;4.43;;;1.15;;
70806;SDS011;58882;52.170;5.386;2023-09-19T02:23:09;4.63;;;1.20;;
70806;SDS011;58882;52.170;5.386;2023-09-19T02:25:37;4.50;;;1.25;;
70806;SDS011;58882;52.170;5.386;2023-09-19T02:28:06;6.88;;;1.58;;
70806;SDS011;58882;52.170;5.386;2023-09-19T02:30:35;6.38;;;1.40;;
70806;SDS011;58882;52.170;5.386;2023-09-19T02:33:03;6.55;;;1.65;;
70806;SDS011;58882;52.170;5.386;2023-09-19T02:35:30;9.60;;;1.80;;
70806;SDS011;58882;52.170;5.386;2023-09-19T02:38:01;7.90;;;1.65;;
70806;SDS011;58882;52.170;5.386;2023-09-19T02:40:32;5.55;;;1.33;;
70806;SDS011;58882;52.170;5.386;2023-09-19T02:43:02;7.63;;;1.50;;
70806;SDS011;58882;52.170;5.386;2023-09-19T02:45:29;6.72;;;1.40;;
70806;SDS011;58882;52.170;5.386;2023-09-19T02:47:56;9.05;;;1.70;;
70806;SDS011;58882;52.170;5.386;2023-09-19T02:50:24;8.15;;;1.60;;
70806;SDS011;58882;52.170;5.386;2023-09-19T02:52:51;8.30;;;1.60;;
70806;SDS011;58882;52.170;5.386;2023-09-19T02:55:18;7.65;;;1.63;;
70806;SDS011;58882;52.170;5.386;2023-09-19T02:57:48;7.90;;;1.65;;
70806;SDS011;58882;52.170;5.386;2023-09-19T03:00:16;8.43;;;1.80;;
70806;SDS011;58882;52.170;5.386;2023-09-19T03:02:49;9.38;;;1.95;;
70806;SDS011;58882;52.170;5.386;2023-09-19T03:05:21;10.02;;;1.98;;
70806;SDS011;58882;52.170;5.386;2023-09-19T03:07:50;7.82;;;1.70;;
70806;SDS011;58882;52.170;5.386;2023-09-19T03:10:18;8.27;;;1.90;;
70806;SDS011;58882;52.170;5.386;2023-09-19T03:12:46;9.15;;;1.83;;
70806;SDS011;58882;52.170;5.386;2023-09-19T03:15:14;8.27;;;1.70;;
70806;SDS011;58882;52.170;5.386;2023-09-19T03:17:47;12.63;;;1.70;;
70806;SDS011;58882;52.170;5.386;2023-09-19T03:20:19;8.13;;;1.75;;
70806;SDS011;58882;52.170;5.386;2023-09-19T03:22:47;9.40;;;1.70;;
70806;SDS011;58882;52.170;5.386;2023-09-19T03:25:15;10.43;;;1.98;;
70806;SDS011;58882;52.170;5.386;2023-09-19T03:27:47;7.03;;;1.90;;
70806;SDS011;58882;52.170;5.386;2023-09-19T03:30:14;9.27;;;1.75;;
70806;SDS011;58882;52.170;5.386;2023-09-19T03:32:47;14.32;;;2.00;;
70806;SDS011;58882;52.170;5.386;2023-09-19T03:35:17;9.73;;;2.03;;
70806;SDS011;58882;52.170;5.386;2023-09-19T03:37:45;10.55;;;1.77;;
70806;SDS011;58882;52.170;5.386;2023-09-19T03:40:13;9.13;;;2.00;;
70806;SDS011;58882;52.170;5.386;2023-09-19T03:42:42;8.18;;;1.83;;
70806;SDS011;58882;52.170;5.386;2023-09-19T03:45:11;8.88;;;1.70;;
70806;SDS011;58882;52.170;5.386;2023-09-19T03:47:44;8.68;;;1.80;;
70806;SDS011;58882;52.170;5.386;2023-09-19T03:50:16;8.00;;;1.85;;
70806;SDS011;58882;52.170;5.386;2023-09-19T03:52:44;11.73;;;1.85;;
70806;SDS011;58882;52.170;5.386;2023-09-19T03:55:11;10.23;;;1.90;;
70806;SDS011;58882;52.170;5.386;2023-09-19T03:57:39;7.90;;;1.77;;
70806;SDS011;58882;52.170;5.386;2023-09-19T04:00:08;8.15;;;1.52;;
70806;SDS011;58882;52.170;5.386;2023-09-19T04:02:38;8.57;;;1.65;;
70806;SDS011;58882;52.170;5.386;2023-09-19T04:05:06;15.73;;;1.80;;
70806;SDS011;58882;52.170;5.386;2023-09-19T04:07:34;9.55;;;1.80;;
70806;SDS011;58882;52.170;5.386;2023-09-19T04:10:01;8.23;;;1.80;;
70806;SDS011;58882;52.170;5.386;2023-09-19T04:12:29;10.43;;;1.67;;
70806;SDS011;58882;52.170;5.386;2023-09-19T04:14:56;10.40;;;2.00;;
70806;SDS011;58882;52.170;5.386;2023-09-19T04:17:23;6.60;;;1.80;;
70806;SDS011;58882;52.170;5.386;2023-09-19T04:19:50;14.80;;;2.42;;
70806;SDS011;58882;52.170;5.386;2023-09-19T04:22:17;9.90;;;1.73;;
70806;SDS011;58882;52.170;5.386;2023-09-19T04:24:45;5.97;;;1.60;;
70806;SDS011;58882;52.170;5.386;2023-09-19T04:27:11;13.48;;;2.10;;
70806;SDS011;58882;52.170;5.386;2023-09-19T04:29:41;10.25;;;1.80;;
70806;SDS011;58882;52.170;5.386;2023-09-19T04:32:08;10.77;;;2.00;;
70806;SDS011;58882;52.170;5.386;2023-09-19T04:34:36;9.27;;;1.70;;
70806;SDS011;58882;52.170;5.386;2023-09-19T04:37:05;8.27;;;1.75;;
70806;SDS011;58882;52.170;5.386;2023-09-19T04:39:32;10.00;;;1.63;;
70806;SDS011;58882;52.170;5.386;2023-09-19T04:42:00;8.75;;;1.70;;
70806;SDS011;58882;52.170;5.386;2023-09-19T04:44:27;12.50;;;1.90;;
70806;SDS011;58882;52.170;5.386;2023-09-19T04:46:54;12.23;;;1.90;;
70806;SDS011;58882;52.170;5.386;2023-09-19T04:49:21;7.53;;;1.50;;
70806;SDS011;58882;52.170;5.386;2023-09-19T04:51:48;10.73;;;2.03;;
70806;SDS011;58882;52.170;5.386;2023-09-19T04:54:15;15.35;;;1.70;;
70806;SDS011;58882;52.170;5.386;2023-09-19T04:56:42;12.98;;;1.75;;
70806;SDS011;58882;52.170;5.386;2023-09-19T04:59:09;7.55;;;1.75;;
70806;SDS011;58882;52.170;5.386;2023-09-19T05:01:37;9.95;;;2.00;;
70806;SDS011;58882;52.170;5.386;2023-09-19T05:04:04;7.78;;;1.70;;
70806;SDS011;58882;52.170;5.386;2023-09-19T05:06:31;8.65;;;1.67;;
70806;SDS011;58882;52.170;5.386;2023-09-19T05:08:59;7.53;;;1.70;;
70806;SDS011;58882;52.170;5.386;2023-09-19T05:11:26;9.57;;;1.60;;
70806;SDS011;58882;52.170;5.386;2023-09-19T05:13:53;9.93;;;1.90;;
70806;SDS011;58882;52.170;5.386;2023-09-19T05:16:20;8.07;;;1.77;;
70806;SDS011;58882;52.170;5.386;2023-09-19T05:18:48;9.13;;;1.80;;
70806;SDS011;58882;52.170;5.386;2023-09-19T05:21:16;6.22;;;1.75;;
70806;SDS011;58882;52.170;5.386;2023-09-19T05:23:44;9.43;;;1.80;;
70806;SDS011;58882;52.170;5.386;2023-09-19T05:26:11;8.60;;;2.00;;
70806;SDS011;58882;52.170;5.386;2023-09-19T05:28:38;9.38;;;1.95;;
70806;SDS011;58882;52.170;5.386;2023-09-19T05:31:05;12.43;;;1.65;;
70806;SDS011;58882;52.170;5.386;2023-09-19T05:33:32;7.78;;;1.73;;
70806;SDS011;58882;52.170;5.386;2023-09-19T05:35:59;11.65;;;1.88;;
70806;SDS011;58882;52.170;5.386;2023-09-19T05:38:26;8.38;;;1.83;;
70806;SDS011;58882;52.170;5.386;2023-09-19T05:40:54;8.85;;;2.10;;
70806;SDS011;58882;52.170;5.386;2023-09-19T05:43:21;10.18;;;1.88;;
70806;SDS011;58882;52.170;5.386;2023-09-19T05:45:48;8.98;;;1.92;;
70806;SDS011;58882;52.170;5.386;2023-09-19T05:48:18;10.32;;;1.90;;
70806;SDS011;58882;52.170;5.386;2023-09-19T05:50:47;9.10;;;1.60;;
70806;SDS011;58882;52.170;5.386;2023-09-19T05:53:15;6.07;;;1.50;;
70806;SDS011;58882;52.170;5.386;2023-09-19T05:55:42;11.52;;;2.17;;
70806;SDS011;58882;52.170;5.386;2023-09-19T05:58:10;8.80;;;1.80;;
70806;SDS011;58882;52.170;5.386;2023-09-19T06:00:40;16.13;;;2.33;;
70806;SDS011;58882;52.170;5.386;2023-09-19T06:03:09;11.40;;;1.83;;
70806;SDS011;58882;52.170;5.386;2023-09-19T06:05:36;14.52;;;2.58;;
70806;SDS011;58882;52.170;5.386;2023-09-19T06:08:07;10.63;;;2.00;;
70806;SDS011;58882;52.170;5.386;2023-09-19T06:10:35;10.18;;;1.67;;
70806;SDS011;58882;52.170;5.386;2023-09-19T06:13:03;7.95;;;1.92;;
70806;SDS011;58882;52.170;5.386;2023-09-19T06:15:36;10.05;;;1.90;;
70806;SDS011;58882;52.170;5.386;2023-09-19T06:18:04;10.70;;;2.05;;
70806;SDS011;58882;52.170;5.386;2023-09-19T06:20:31;8.88;;;1.77;;
70806;SDS011;58882;52.170;5.386;2023-09-19T06:22:59;8.35;;;1.65;;
70806;SDS011;58882;52.170;5.386;2023-09-19T06:25:28;8.95;;;1.77;;
70806;SDS011;58882;52.170;5.386;2023-09-19T06:27:55;10.52;;;2.08;;
70806;SDS011;58882;52.170;5.386;2023-09-19T06:30:23;9.30;;;1.73;;
70806;SDS011;58882;52.170;5.386;2023-09-19T06:32:58;10.63;;;1.90;;
70806;SDS011;58882;52.170;5.386;2023-09-19T06:35:26;7.03;;;1.77;;
70806;SDS011;58882;52.170;5.386;2023-09-19T06:37:54;13.20;;;1.80;;
70806;SDS011;58882;52.170;5.386;2023-09-19T06:40:25;7.03;;;1.70;;
70806;SDS011;58882;52.170;5.386;2023-09-19T06:42:52;8.48;;;1.85;;
70806;SDS011;58882;52.170;5.386;2023-09-19T06:45:20;8.32;;;1.80;;
70806;SDS011;58882;52.170;5.386;2023-09-19T06:47:49;9.23;;;1.88;;
70806;SDS011;58882;52.170;5.386;2023-09-19T06:50:18;8.88;;;1.58;;
70806;SDS011;58882;52.170;5.386;2023-09-19T06:52:49;9.63;;;1.83;;
70806;SDS011;58882;52.170;5.386;2023-09-19T06:55:18;9.32;;;1.98;;
70806;SDS011;58882;52.170;5.386;2023-09-19T06:57:47;13.93;;;1.90;;
70806;SDS011;58882;52.170;5.386;2023-09-19T07:00:15;8.82;;;1.50;;
70806;SDS011;58882;52.170;5.386;2023-09-19T07:02:55;9.73;;;1.98;;
70806;SDS011;58882;52.170;5.386;2023-09-19T07:05:23;10.65;;;2.22;;
70806;SDS011;58882;52.170;5.386;2023-09-19T07:07:50;8.13;;;1.65;;
70806;SDS011;58882;52.170;5.386;2023-09-19T07:10:17;8.70;;;2.13;;
70806;SDS011;58882;52.170;5.386;2023-09-19T07:12:46;9.52;;;2.10;;
70806;SDS011;58882;52.170;5.386;2023-09-19T07:15:13;11.25;;;1.90;;
70806;SDS011;58882;52.170;5.386;2023-09-19T07:17:40;10.27;;;1.80;;
70806;SDS011;58882;52.170;5.386;2023-09-19T07:20:07;7.85;;;1.98;;
70806;SDS011;58882;52.170;5.386;2023-09-19T07:22:34;9.73;;;2.00;;
70806;SDS011;58882;52.170;5.386;2023-09-19T07:25:05;11.23;;;1.88;;
70806;SDS011;58882;52.170;5.386;2023-09-19T07:27:32;7.30;;;1.83;;
70806;SDS011;58882;52.170;5.386;2023-09-19T07:29:59;8.35;;;1.85;;
70806;SDS011;58882;52.170;5.386;2023-09-19T07:32:26;11.68;;;1.90;;
70806;SDS011;58882;52.170;5.386;2023-09-19T07:34:53;11.25;;;2.00;;
70806;SDS011;58882;52.170;5.386;2023-09-19T07:37:21;10.95;;;1.80;;
70806;SDS011;58882;52.170;5.386;2023-09-19T07:39:48;11.00;;;2.17;;
70806;SDS011;58882;52.170;5.386;2023-09-19T07:42:17;9.43;;;1.85;;
70806;SDS011;58882;52.170;5.386;2023-09-19T07:44:44;8.82;;;1.80;;
70806;SDS011;58882;52.170;5.386;2023-09-19T07:47:17;7.03;;;1.80;;
70806;SDS011;58882;52.170;5.386;2023-09-19T07:49:46;8.82;;;1.90;;
70806;SDS011;58882;52.170;5.386;2023-09-19T07:52:14;8.63;;;1.48;;
70806;SDS011;58882;52.170;5.386;2023-09-19T07:54:42;11.52;;;1.98;;
70806;SDS011;58882;52.170;5.386;2023-09-19T07:59:37;11.73;;;2.10;;
70806;SDS011;58882;52.170;5.386;2023-09-19T08:02:05;11.18;;;1.90;;
70806;SDS011;58882;52.170;5.386;2023-09-19T08:04:32;9.23;;;1.98;;
70806;SDS011;58882;52.170;5.386;2023-09-19T08:07:02;11.25;;;2.17;;
70806;SDS011;58882;52.170;5.386;2023-09-19T08:09:31;9.63;;;1.70;;
70806;SDS011;58882;52.170;5.386;2023-09-19T08:11:59;7.65;;;2.00;;
70806;SDS011;58882;52.170;5.386;2023-09-19T08:14:31;12.52;;;2.25;;
70806;SDS011;58882;52.170;5.386;2023-09-19T08:16:58;10.13;;;2.10;;
70806;SDS011;58882;52.170;5.386;2023-09-19T08:21:55;8.43;;;1.70;;
70806;SDS011;58882;52.170;5.386;2023-09-19T08:24:25;12.13;;;2.78;;
70806;SDS011;58882;52.170;5.386;2023-09-19T08:26:56;8.63;;;2.08;;
70806;SDS011;58882;52.170;5.386;2023-09-19T08:29:24;11.95;;;2.10;;
70806;SDS011;58882;52.170;5.386;2023-09-19T08:31:54;12.32;;;2.15;;
70806;SDS011;58882;52.170;5.386;2023-09-19T08:34:22;8.77;;;2.47;;
70806;SDS011;58882;52.170;5.386;2023-09-19T08:36:51;10.68;;;2.22;;
70806;SDS011;58882;52.170;5.386;2023-09-19T08:39:23;8.65;;;1.80;;
70806;SDS011;58882;52.170;5.386;2023-09-19T08:41:59;10.30;;;2.20;;
70806;SDS011;58882;52.170;5.386;2023-09-19T08:44:27;9.75;;;1.98;;
70806;SDS011;58882;52.170;5.386;2023-09-19T08:47:15;8.35;;;2.22;;
70806;SDS011;58882;52.170;5.386;2023-09-19T08:52:42;9.25;;;2.00;;
70806;SDS011;58882;52.170;5.386;2023-09-19T08:55:11;9.75;;;2.60;;
70806;SDS011;58882;52.170;5.386;2023-09-19T08:57:39;13.70;;;2.42;;
70806;SDS011;58882;52.170;5.386;2023-09-19T09:00:09;16.63;;;2.70;;
70806;SDS011;58882;52.170;5.386;2023-09-19T09:02:38;11.75;;;2.10;;
70806;SDS011;58882;52.170;5.386;2023-09-19T09:05:08;10.43;;;2.25;;
70806;SDS011;58882;52.170;5.386;2023-09-19T09:07:37;10.02;;;2.10;;
70806;SDS011;58882;52.170;5.386;2023-09-19T09:12:32;11.27;;;2.20;;
70806;SDS011;58882;52.170;5.386;2023-09-19T09:15:02;10.88;;;2.38;;
70806;SDS011;58882;52.170;5.386;2023-09-19T09:17:30;11.13;;;2.35;;
70806;SDS011;58882;52.170;5.386;2023-09-19T09:19:57;11.07;;;2.10;;
70806;SDS011;58882;52.170;5.386;2023-09-19T09:22:25;8.85;;;2.15;;
70806;SDS011;58882;52.170;5.386;2023-09-19T09:24:55;9.98;;;2.13;;
70806;SDS011;58882;52.170;5.386;2023-09-19T09:27:31;8.65;;;2.20;;
70806;SDS011;58882;52.170;5.386;2023-09-19T09:29:59;10.70;;;2.17;;
70806;SDS011;58882;52.170;5.386;2023-09-19T09:32:29;9.05;;;1.90;;
70806;SDS011;58882;52.170;5.386;2023-09-19T09:35:00;9.45;;;2.08;;
70806;SDS011;58882;52.170;5.386;2023-09-19T09:37:28;8.35;;;2.10;;
70806;SDS011;58882;52.170;5.386;2023-09-19T09:39:58;11.32;;;2.10;;
70806;SDS011;58882;52.170;5.386;2023-09-19T09:42:46;9.35;;;2.13;;
70806;SDS011;58882;52.170;5.386;2023-09-19T09:45:20;9.02;;;2.30;;
70806;SDS011;58882;52.170;5.386;2023-09-19T09:48:00;10.15;;;2.30;;
70806;SDS011;58882;52.170;5.386;2023-09-19T09:50:47;9.52;;;2.10;;
70806;SDS011;58882;52.170;5.386;2023-09-19T09:53:21;10.18;;;2.10;;
70806;SDS011;58882;52.170;5.386;2023-09-19T09:56:05;10.10;;;2.10;;
70806;SDS011;58882;52.170;5.386;2023-09-19T09:58:34;8.60;;;2.25;;
70806;SDS011;58882;52.170;5.386;2023-09-19T10:01:22;8.85;;;1.85;;
70806;SDS011;58882;52.170;5.386;2023-09-19T10:03:59;9.43;;;2.00;;
70806;SDS011;58882;52.170;5.386;2023-09-19T10:09:07;8.40;;;2.10;;
70806;SDS011;58882;52.170;5.386;2023-09-19T10:11:45;10.50;;;2.00;;
70806;SDS011;58882;52.170;5.386;2023-09-19T10:14:27;11.80;;;2.30;;
70806;SDS011;58882;52.170;5.386;2023-09-19T10:16:59;11.10;;;1.98;;
70806;SDS011;58882;52.170;5.386;2023-09-19T10:19:33;9.20;;;2.42;;
70806;SDS011;58882;52.170;5.386;2023-09-19T10:22:04;12.68;;;2.38;;
70806;SDS011;58882;52.170;5.386;2023-09-19T10:24:35;9.85;;;1.80;;
70806;SDS011;58882;52.170;5.386;2023-09-19T10:27:17;10.55;;;1.88;;
70806;SDS011;58882;52.170;5.386;2023-09-19T10:29:47;10.48;;;1.83;;
70806;SDS011;58882;52.170;5.386;2023-09-19T10:32:17;10.40;;;1.83;;
70806;SDS011;58882;52.170;5.386;2023-09-19T10:34:49;10.70;;;2.05;;
70806;SDS011;58882;52.170;5.386;2023-09-19T10:37:16;9.27;;;1.70;;
70806;SDS011;58882;52.170;5.386;2023-09-19T10:39:45;9.32;;;2.05;;
70806;SDS011;58882;52.170;5.386;2023-09-19T10:42:14;9.20;;;2.17;;
70806;SDS011;58882;52.170;5.386;2023-09-19T10:44:47;8.70;;;1.92;;
70806;SDS011;58882;52.170;5.386;2023-09-19T10:47:20;10.07;;;1.90;;
70806;SDS011;58882;52.170;5.386;2023-09-19T10:49:50;8.25;;;1.88;;
70806;SDS011;58882;52.170;5.386;2023-09-19T10:52:19;11.38;;;2.13;;
70806;SDS011;58882;52.170;5.386;2023-09-19T10:54:51;10.35;;;1.63;;
70806;SDS011;58882;52.170;5.386;2023-09-19T10:57:22;7.82;;;1.73;;
70806;SDS011;58882;52.170;5.386;2023-09-19T11:02:29;9.98;;;2.03;;
70806;SDS011;58882;52.170;5.386;2023-09-19T11:04:56;9.45;;;1.65;;
70806;SDS011;58882;52.170;5.386;2023-09-19T11:07:57;9.10;;;2.05;;
70806;SDS011;58882;52.170;5.386;2023-09-19T11:26:48;10.35;;;1.98;;
70806;SDS011;58882;52.170;5.386;2023-09-19T11:29:28;9.77;;;1.95;;
70806;SDS011;58882;52.170;5.386;2023-09-19T11:31:57;8.55;;;1.90;;
70806;SDS011;58882;52.170;5.386;2023-09-19T11:34:38;9.55;;;1.63;;
70806;SDS011;58882;52.170;5.386;2023-09-19T11:39:38;9.80;;;2.00;;
70806;SDS011;58882;52.170;5.386;2023-09-19T11:48:23;10.50;;;2.00;;
70806;SDS011;58882;52.170;5.386;2023-09-19T11:50:53;6.68;;;1.60;;
70806;SDS011;58882;52.170;5.386;2023-09-19T11:53:21;8.45;;;1.85;;
70806;SDS011;58882;52.170;5.386;2023-09-19T11:55:50;8.68;;;1.50;;
70806;SDS011;58882;52.170;5.386;2023-09-19T11:58:19;8.68;;;1.60;;
70806;SDS011;58882;52.170;5.386;2023-09-19T12:00:46;5.85;;;1.60;;
70806;SDS011;58882;52.170;5.386;2023-09-19T12:03:21;5.55;;;1.33;;
70806;SDS011;58882;52.170;5.386;2023-09-19T12:05:49;7.22;;;1.40;;
70806;SDS011;58882;52.170;5.386;2023-09-19T12:08:15;9.50;;;1.70;;
70806;SDS011;58882;52.170;5.386;2023-09-19T12:10:50;5.97;;;1.10;;
70806;SDS011;58882;52.170;5.386;2023-09-19T12:13:21;8.40;;;1.40;;
70806;SDS011;58882;52.170;5.386;2023-09-19T12:15:48;9.40;;;1.55;;
70806;SDS011;58882;52.170;5.386;2023-09-19T12:18:28;6.30;;;1.60;;
70806;SDS011;58882;52.170;5.386;2023-09-19T12:20:56;8.27;;;1.73;;
70806;SDS011;58882;52.170;5.386;2023-09-19T12:23:24;7.07;;;1.48;;
70806;SDS011;58882;52.170;5.386;2023-09-19T12:25:54;5.88;;;1.65;;
70806;SDS011;58882;52.170;5.386;2023-09-19T12:28:25;6.47;;;1.48;;
70806;SDS011;58882;52.170;5.386;2023-09-19T12:30:53;5.80;;;1.52;;
70806;SDS011;58882;52.170;5.386;2023-09-19T12:33:21;6.05;;;1.30;;
70806;SDS011;58882;52.170;5.386;2023-09-19T12:35:51;4.75;;;1.20;;
70806;SDS011;58882;52.170;5.386;2023-09-19T12:38:27;7.30;;;1.42;;
70806;SDS011;58882;52.170;5.386;2023-09-19T12:40:55;7.18;;;1.52;;
70806;SDS011;58882;52.170;5.386;2023-09-19T12:43:25;7.90;;;1.30;;
70806;SDS011;58882;52.170;5.386;2023-09-19T12:45:53;6.78;;;1.48;;
70806;SDS011;58882;52.170;5.386;2023-09-19T12:48:23;5.57;;;1.13;;
70806;SDS011;58882;52.170;5.386;2023-09-19T12:51:03;7.85;;;1.67;;
70806;SDS011;58882;52.170;5.386;2023-09-19T12:53:36;7.43;;;1.52;;
70806;SDS011;58882;52.170;5.386;2023-09-19T12:56:10;6.45;;;1.30;;
70806;SDS011;58882;52.170;5.386;2023-09-19T12:58:49;4.88;;;1.40;;
70806;SDS011;58882;52.170;5.386;2023-09-19T13:01:27;6.45;;;1.30;;
70806;SDS011;58882;52.170;5.386;2023-09-19T13:06:52;4.22;;;1.23;;
70806;SDS011;58882;52.170;5.386;2023-09-19T13:09:22;6.22;;;1.23;;
70806;SDS011;58882;52.170;5.386;2023-09-19T13:12:01;7.63;;;1.60;;
70806;SDS011;58882;52.170;5.386;2023-09-19T13:14:29;6.30;;;1.23;;
70806;SDS011;58882;52.170;5.386;2023-09-19T13:17:06;6.72;;;1.50;;
70806;SDS011;58882;52.170;5.386;2023-09-19T13:19:44;6.18;;;1.20;;
70806;SDS011;58882;52.170;5.386;2023-09-19T13:22:35;5.95;;;1.40;;
70806;SDS011;58882;52.170;5.386;2023-09-19T13:25:02;4.45;;;1.20;;
70806;SDS011;58882;52.170;5.386;2023-09-19T13:27:30;4.70;;;1.25;;
70806;SDS011;58882;52.170;5.386;2023-09-19T13:29:58;5.95;;;1.55;;
70806;SDS011;58882;52.170;5.386;2023-09-19T13:32:25;7.18;;;1.60;;
70806;SDS011;58882;52.170;5.386;2023-09-19T13:34:52;6.43;;;1.45;;
70806;SDS011;58882;52.170;5.386;2023-09-19T13:37:19;4.97;;;1.02;;
70806;SDS011;58882;52.170;5.386;2023-09-19T13:39:46;4.75;;;1.10;;
70806;SDS011;58882;52.170;5.386;2023-09-19T13:42:14;5.18;;;1.20;;
70806;SDS011;58882;52.170;5.386;2023-09-19T13:44:42;5.72;;;1.30;;
70806;SDS011;58882;52.170;5.386;2023-09-19T13:47:09;5.03;;;1.02;;
70806;SDS011;58882;52.170;5.386;2023-09-19T13:49:39;6.68;;;1.40;;
70806;SDS011;58882;52.170;5.386;2023-09-19T13:52:07;4.53;;;1.20;;
70806;SDS011;58882;52.170;5.386;2023-09-19T13:54:34;5.30;;;1.23;;
70806;SDS011;58882;52.170;5.386;2023-09-19T13:57:01;2.60;;;0.95;;
70806;SDS011;58882;52.170;5.386;2023-09-19T13:59:28;4.75;;;1.13;;
70806;SDS011;58882;52.170;5.386;2023-09-19T14:01:57;3.85;;;1.13;;
70806;SDS011;58882;52.170;5.386;2023-09-19T14:04:24;4.97;;;1.40;;
70806;SDS011;58882;52.170;5.386;2023-09-19T14:06:51;6.63;;;1.40;;
70806;SDS011;58882;52.170;5.386;2023-09-19T14:09:17;5.25;;;1.10;;
70806;SDS011;58882;52.170;5.386;2023-09-19T14:11:46;5.47;;;1.30;;
70806;SDS011;58882;52.170;5.386;2023-09-19T14:16:41;4.30;;;1.15;;
70806;SDS011;58882;52.170;5.386;2023-09-19T14:19:08;3.90;;;1.20;;
70806;SDS011;58882;52.170;5.386;2023-09-19T14:21:35;5.10;;;0.95;;
70806;SDS011;58882;52.170;5.386;2023-09-19T14:24:05;4.50;;;1.02;;
70806;SDS011;58882;52.170;5.386;2023-09-19T14:26:35;2.90;;;0.98;;
70806;SDS011;58882;52.170;5.386;2023-09-19T14:29:02;4.47;;;1.08;;
70806;SDS011;58882;52.170;5.386;2023-09-19T14:31:29;4.28;;;1.05;;
70806;SDS011;58882;52.170;5.386;2023-09-19T14:33:57;7.72;;;1.23;;
70806;SDS011;58882;52.170;5.386;2023-09-19T14:36:25;6.80;;;1.33;;
70806;SDS011;58882;52.170;5.386;2023-09-19T14:38:52;6.20;;;1.35;;
70806;SDS011;58882;52.170;5.386;2023-09-19T14:41:26;5.95;;;1.27;;
70806;SDS011;58882;52.170;5.386;2023-09-19T14:43:53;4.53;;;1.45;;
70806;SDS011;58882;52.170;5.386;2023-09-19T14:46:21;10.55;;;2.70;;
70806;SDS011;58882;52.170;5.386;2023-09-19T14:48:51;12.65;;;2.60;;
70806;SDS011;58882;52.170;5.386;2023-09-19T14:51:18;13.95;;;3.13;;
70806;SDS011;58882;52.170;5.386;2023-09-19T14:53:45;15.25;;;2.80;;
70806;SDS011;58882;52.170;5.386;2023-09-19T14:56:13;13.85;;;2.85;;
70806;SDS011;58882;52.170;5.386;2023-09-19T14:58:44;11.95;;;3.13;;
70806;SDS011;58882;52.170;5.386;2023-09-19T15:01:12;13.57;;;2.95;;
70806;SDS011;58882;52.170;5.386;2023-09-19T15:03:40;11.18;;;2.78;;
70806;SDS011;58882;52.170;5.386;2023-09-19T15:06:10;8.70;;;2.60;;
70806;SDS011;58882;52.170;5.386;2023-09-19T15:08:41;9.95;;;2.05;;
70806;SDS011;58882;52.170;5.386;2023-09-19T15:11:13;9.45;;;2.28;;
70806;SDS011;58882;52.170;5.386;2023-09-19T15:13:43;7.28;;;2.25;;
70806;SDS011;58882;52.170;5.386;2023-09-19T15:16:11;9.60;;;2.55;;
70806;SDS011;58882;52.170;5.386;2023-09-19T15:18:40;8.02;;;1.92;;
70806;SDS011;58882;52.170;5.386;2023-09-19T15:21:08;9.38;;;2.08;;
70806;SDS011;58882;52.170;5.386;2023-09-19T15:23:37;8.13;;;2.30;;
70806;SDS011;58882;52.170;5.386;2023-09-19T15:26:05;5.65;;;1.70;;
70806;SDS011;58882;52.170;5.386;2023-09-19T15:28:33;6.53;;;1.92;;
70806;SDS011;58882;52.170;5.386;2023-09-19T15:31:00;5.65;;;1.73;;
70806;SDS011;58882;52.170;5.386;2023-09-19T15:33:33;4.72;;;1.48;;
70806;SDS011;58882;52.170;5.386;2023-09-19T15:38:56;8.43;;;1.90;;
70806;SDS011;58882;52.170;5.386;2023-09-19T15:41:27;10.63;;;2.58;;
70806;SDS011;58882;52.170;5.386;2023-09-19T15:44:02;8.52;;;1.67;;
70806;SDS011;58882;52.170;5.386;2023-09-19T15:46:31;8.35;;;2.03;;
70806;SDS011;58882;52.170;5.386;2023-09-19T15:49:02;5.57;;;1.80;;
70806;SDS011;58882;52.170;5.386;2023-09-19T15:51:29;8.32;;;2.00;;
70806;SDS011;58882;52.170;5.386;2023-09-19T15:53:56;5.85;;;1.83;;
70806;SDS011;58882;52.170;5.386;2023-09-19T15:56:26;7.28;;;2.00;;
70806;SDS011;58882;52.170;5.386;2023-09-19T15:58:55;7.18;;;2.03;;
70806;SDS011;58882;52.170;5.386;2023-09-19T16:01:22;6.97;;;1.80;;
70806;SDS011;58882;52.170;5.386;2023-09-19T16:03:50;7.05;;;1.98;;
70806;SDS011;58882;52.170;5.386;2023-09-19T16:06:20;7.95;;;2.17;;
70806;SDS011;58882;52.170;5.386;2023-09-19T16:08:50;6.43;;;1.73;;
70806;SDS011;58882;52.170;5.386;2023-09-19T16:11:18;7.50;;;2.03;;
70806;SDS011;58882;52.170;5.386;2023-09-19T16:13:49;6.57;;;1.90;;